Time;durP1;ratioP1;P1;durP2;ratioP2;P2;SDS_P1;SDS_P2;PMS_P1;PMS_P2;Temp;Humidity;BMP_temperature;BMP_pressure;BME280_temperature;BME280_humidity;BME280_pressure;Samples;Min_cycle;Max_cycle;Signal;HPM_P1;HPM_P2
2024/01/23 00:00:08;;;;;;;3.75;3.08;;;5.80;64.30;;;;;;5094368;28;20442;-81
2024/01/23 00:02:34;;;;;;;3.45;3.15;;;5.80;64.30;;;;;;5075902;28;20020;-83
2024/01/23 00:05:00;;;;;;;3.38;3.03;;;5.80;64.30;;;;;;5075347;28;20040;-83
2024/01/23 00:07:26;;;;;;;3.60;3.30;;;5.80;64.20;;;;;;5093610;28;20030;-83
2024/01/23 00:09:52;;;;;;;3.22;2.92;;;5.80;64.20;;;;;;5102268;28;20024;-81
2024/01/23 00:12:18;;;;;;;3.45;3.13;;;5.80;64.30;;;;;;5087195;28;20040;-82
2024/01/23 00:14:43;;;;;;;3.88;3.35;;;5.80;64.30;;;;;;5098583;28;20024;-82
2024/01/23 00:17:09;;;;;;;3.67;3.28;;;5.80;64.20;;;;;;5097336;28;20438;-82
2024/01/23 00:19:35;;;;;;;3.30;2.90;;;5.80;64.20;;;;;;5097293;28;20020;-83
2024/01/23 00:22:01;;;;;;;3.63;3.20;;;5.80;64.20;;;;;;5079408;28;20024;-81
2024/01/23 00:24:26;;;;;;;3.70;3.10;;;5.80;64.20;;;;;;5078738;28;20346;-82
2024/01/23 00:26:52;;;;;;;3.30;3.00;;;5.80;64.20;;;;;;5097288;28;20043;-83
2024/01/23 00:29:18;;;;;;;3.17;2.83;;;5.80;64.20;;;;;;5097163;28;20077;-82
2024/01/23 00:31:44;;;;;;;3.65;3.22;;;5.80;64.20;;;;;;5096992;28;20108;-82
2024/01/23 00:34:09;;;;;;;3.28;2.97;;;5.80;64.20;;;;;;5096988;28;20028;-82
2024/01/23 00:36:35;;;;;;;3.13;2.67;;;5.80;64.20;;;;;;5080419;28;20024;-82
2024/01/23 00:39:01;;;;;;;3.25;2.95;;;5.80;64.20;;;;;;5097839;28;20016;-82
2024/01/23 00:41:27;;;;;;;3.42;3.13;;;5.80;64.20;;;;;;5080653;28;20017;-80
2024/01/23 00:43:52;;;;;;;3.50;3.17;;;5.80;64.20;;;;;;5097559;28;20082;-83
2024/01/23 00:46:18;;;;;;;3.63;3.10;;;5.80;64.20;;;;;;5096827;28;20453;-82
2024/01/23 00:48:44;;;;;;;3.47;3.10;;;5.80;64.20;;;;;;5096696;28;20031;-81
2024/01/23 00:51:11;;;;;;;3.55;3.10;;;5.80;64.10;;;;;;5078448;28;20103;-83
2024/01/23 00:53:37;;;;;;;3.50;3.20;;;5.80;64.10;;;;;;5095964;28;20550;-83
2024/01/23 00:56:03;;;;;;;3.20;2.90;;;5.80;64.10;;;;;;5096834;28;20048;-82
2024/01/23 00:58:28;;;;;;;3.88;3.17;;;5.80;64.10;;;;;;5096463;28;20044;-83
2024/01/23 01:00:54;;;;;;;3.08;2.78;;;5.80;64.10;;;;;;5096435;28;20051;-81
2024/01/23 01:03:20;;;;;;;3.72;3.22;;;5.80;64.10;;;;;;5078067;28;20024;-82
2024/01/23 01:05:46;;;;;;;3.30;3.00;;;5.80;64.10;;;;;;5096402;28;20020;-82
2024/01/23 01:08:12;;;;;;;3.40;3.08;;;5.80;64.10;;;;;;5100039;28;20090;-82
2024/01/23 01:10:38;;;;;;;3.40;3.10;;;5.80;64.10;;;;;;5100300;28;20028;-83
2024/01/23 01:13:03;;;;;;;3.22;2.92;;;5.80;64.10;;;;;;5101485;28;20106;-82
2024/01/23 01:15:30;;;;;;;3.38;3.05;;;5.80;64.10;;;;;;5081928;28;20088;-80
2024/01/23 01:17:56;;;;;;;3.60;3.15;;;5.80;64.10;;;;;;5083128;28;20045;-83
2024/01/23 01:20:22;;;;;;;3.25;2.83;;;5.80;64.10;;;;;;5098166;28;20024;-83
2024/01/23 01:22:48;;;;;;;3.58;3.13;;;5.80;64.00;;;;;;5097141;28;20027;-82
2024/01/23 01:25:13;;;;;;;3.20;2.90;;;5.80;64.10;;;;;;5096220;28;20035;-82
2024/01/23 01:27:39;;;;;;;3.00;2.80;;;5.80;64.00;;;;;;5096276;28;20039;-82
2024/01/23 01:30:06;;;;;;;2.85;2.60;;;5.80;64.10;;;;;;5096100;28;20024;-81
2024/01/23 01:32:31;;;;;;;3.58;3.05;;;5.80;64.00;;;;;;5095986;28;20050;-83
2024/01/23 01:34:57;;;;;;;3.05;2.78;;;5.80;64.00;;;;;;5077704;28;20028;-83
2024/01/23 01:37:24;;;;;;;3.53;3.15;;;5.80;64.10;;;;;;5095937;28;20016;-83
2024/01/23 01:39:50;;;;;;;3.65;3.20;;;5.80;64.00;;;;;;5095892;28;20016;-84
2024/01/23 01:42:16;;;;;;;3.30;3.00;;;5.80;64.00;;;;;;5095537;28;20450;-83
2024/01/23 01:44:43;;;;;;;3.67;2.90;;;5.80;64.00;;;;;;5095682;28;20032;-83
2024/01/23 01:47:10;;;;;;;3.63;3.15;;;5.80;64.60;;;;;;5095654;28;20455;-82
2024/01/23 01:49:36;;;;;;;3.13;2.83;;;5.70;64.00;;;;;;5077355;28;20020;-83
2024/01/23 01:52:03;;;;;;;3.63;3.33;;;5.80;64.00;;;;;;5095375;28;20072;-84
2024/01/23 01:54:30;;;;;;;3.08;2.78;;;5.70;64.00;;;;;;5094933;28;20039;-84
2024/01/23 01:56:59;;;;;;;3.20;2.90;;;5.80;64.00;;;;;;5095330;28;20335;-85
2024/01/23 01:59:25;;;;;;;3.13;2.90;;;5.80;64.00;;;;;;5096061;28;20066;-83
2024/01/23 02:01:52;;;;;;;2.92;2.72;;;5.80;64.00;;;;;;5094987;28;20101;-82
2024/01/23 02:04:18;;;;;;;3.00;2.72;;;5.80;64.00;;;;;;5077326;28;20032;-83
2024/01/23 02:06:46;;;;;;;3.35;2.90;;;5.70;63.90;;;;;;5095766;28;20327;-83
2024/01/23 02:09:12;;;;;;;3.50;3.20;;;5.70;64.00;;;;;;5076907;28;20454;-81
2024/01/23 02:11:53;;;;;;;2.92;2.72;;;5.70;63.90;;;;;;5095200;28;20062;-84
2024/01/23 02:14:19;;;;;;;3.10;2.90;;;5.70;63.90;;;;;;5094949;28;20028;-83
2024/01/23 02:16:45;;;;;;;4.53;3.28;;;5.70;63.90;;;;;;5094881;28;20355;-84
2024/01/23 02:19:13;;;;;;;3.17;2.88;;;5.80;64.00;;;;;;5096372;28;20020;-82
2024/01/23 02:21:39;;;;;;;3.28;2.97;;;5.70;63.90;;;;;;5099151;28;20016;-82
2024/01/23 02:24:05;;;;;;;3.38;3.08;;;5.70;63.90;;;;;;5077416;28;20032;-82
2024/01/23 02:26:31;;;;;;;4.18;3.15;;;5.70;63.90;;;;;;5077388;28;20024;-81
2024/01/23 02:28:56;;;;;;;3.38;3.05;;;5.70;63.90;;;;;;5095653;28;20024;-83
2024/01/23 02:31:22;;;;;;;3.20;2.90;;;5.70;63.90;;;;;;5094893;28;20468;-83
2024/01/23 02:33:48;;;;;;;3.10;2.80;;;5.70;63.90;;;;;;5094822;28;20050;-83
2024/01/23 02:36:14;;;;;;;3.70;3.30;;;5.70;63.90;;;;;;5075844;28;20081;-83
2024/01/23 02:38:40;;;;;;;3.83;3.20;;;5.70;63.90;;;;;;5096894;28;20024;-84
2024/01/23 02:41:06;;;;;;;3.42;2.80;;;5.70;63.90;;;;;;5098676;28;20469;-82
2024/01/23 02:43:32;;;;;;;3.22;2.92;;;5.70;63.90;;;;;;5099414;28;20056;-81
2024/01/23 02:45:58;;;;;;;4.03;3.20;;;5.70;63.90;;;;;;5099249;28;20051;-84
2024/01/23 02:48:23;;;;;;;3.53;3.20;;;5.70;63.90;;;;;;5096648;28;20020;-83
2024/01/23 02:50:49;;;;;;;3.20;2.90;;;5.70;63.90;;;;;;5098073;28;20016;-82
2024/01/23 02:53:15;;;;;;;2.95;2.75;;;5.70;63.90;;;;;;5096929;28;20461;-82
2024/01/23 02:55:44;;;;;;;3.03;2.72;;;5.70;63.90;;;;;;5078873;28;20056;-83
2024/01/23 02:58:10;;;;;;;3.50;3.20;;;5.70;63.90;;;;;;5098128;28;20022;-83
2024/01/23 03:00:39;;;;;;;3.53;3.20;;;5.70;63.90;;;;;;5078762;28;20039;-82
2024/01/23 03:03:09;;;;;;;3.30;3.00;;;5.70;63.80;;;;;;5095627;28;20062;-82
2024/01/23 03:05:35;;;;;;;3.33;2.65;;;5.70;63.90;;;;;;5094780;28;20031;-83
2024/01/23 03:08:01;;;;;;;3.00;2.80;;;5.70;63.80;;;;;;5095384;28;20366;-85
2024/01/23 03:10:27;;;;;;;4.25;3.08;;;5.70;63.80;;;;;;5098351;28;20405;-82
2024/01/23 03:12:54;;;;;;;3.60;3.30;;;5.70;63.80;;;;;;5102452;28;20024;-82
2024/01/23 03:15:20;;;;;;;4.05;3.10;;;5.70;63.80;;;;;;5106039;28;20051;-83
2024/01/23 03:17:46;;;;;;;3.10;2.80;;;5.70;63.80;;;;;;5098649;28;20020;-83
2024/01/23 03:20:12;;;;;;;3.28;2.90;;;5.70;63.80;;;;;;5094956;28;20027;-83
2024/01/23 03:22:38;;;;;;;3.30;3.00;;;5.70;63.80;;;;;;5094385;28;20085;-83
2024/01/23 03:25:05;;;;;;;4.15;2.90;;;5.70;63.80;;;;;;5094203;28;20032;-83
2024/01/23 03:27:31;;;;;;;2.92;2.70;;;5.70;63.80;;;;;;5094758;28;20449;-84
2024/01/23 03:29:57;;;;;;;3.40;3.10;;;5.70;63.80;;;;;;5076256;28;20055;-84
2024/01/23 03:32:23;;;;;;;3.25;2.95;;;5.70;63.80;;;;;;5094132;28;20016;-83
2024/01/23 03:34:49;;;;;;;3.20;2.90;;;5.70;63.80;;;;;;5093937;28;20053;-82
2024/01/23 03:37:15;;;;;;;3.35;3.00;;;5.70;63.80;;;;;;5093621;28;20055;-83
2024/01/23 03:39:42;;;;;;;3.47;3.10;;;5.70;63.80;;;;;;5093799;28;20016;-83
2024/01/23 03:42:07;;;;;;;3.47;3.05;;;5.70;63.80;;;;;;5093973;28;20047;-83
2024/01/23 03:44:33;;;;;;;3.38;2.97;;;5.70;63.80;;;;;;5093403;28;20473;-82
2024/01/23 03:46:59;;;;;;;3.75;3.00;;;5.70;63.80;;;;;;5093732;28;20373;-84
2024/01/23 03:49:25;;;;;;;3.38;3.08;;;5.70;63.80;;;;;;5097500;28;20028;-84
2024/01/23 03:51:51;;;;;;;3.22;2.92;;;5.70;63.70;;;;;;5097678;28;20020;-83
2024/01/23 03:54:17;;;;;;;3.55;3.25;;;5.70;63.70;;;;;;5097537;28;20067;-82
2024/01/23 03:56:43;;;;;;;3.25;2.95;;;5.70;63.80;;;;;;5079613;28;20026;-85
2024/01/23 03:59:09;;;;;;;3.10;2.80;;;5.70;63.70;;;;;;5098245;28;20102;-83
2024/01/23 04:01:35;;;;;;;4.07;3.35;;;5.70;63.80;;;;;;5097365;28;20481;-83
2024/01/23 04:04:02;;;;;;;3.30;3.00;;;5.70;63.70;;;;;;5078789;28;20123;-83
2024/01/23 04:06:27;;;;;;;3.92;2.85;;;5.70;63.70;;;;;;5097945;28;20038;-82
2024/01/23 04:08:53;;;;;;;3.00;2.70;;;5.70;63.70;;;;;;5097447;28;20485;-83
2024/01/23 04:11:19;;;;;;;3.22;2.92;;;5.70;63.70;;;;;;5098018;28;20442;-82
2024/01/23 04:13:45;;;;;;;3.33;3.00;;;5.70;63.70;;;;;;5079123;28;20028;-83
2024/01/23 04:16:10;;;;;;;3.38;3.08;;;5.70;63.70;;;;;;5079227;28;20020;-82
2024/01/23 04:18:36;;;;;;;3.13;2.83;;;5.70;63.70;;;;;;5096902;28;20050;-82
2024/01/23 04:21:04;;;;;;;3.47;3.17;;;5.70;63.70;;;;;;5096805;28;20102;-82
2024/01/23 04:23:30;;;;;;;3.13;2.83;;;5.70;63.70;;;;;;5097434;28;20426;-82
2024/01/23 04:25:56;;;;;;;3.17;2.88;;;5.70;63.70;;;;;;5079036;28;20141;-81
2024/01/23 04:28:22;;;;;;;3.30;3.00;;;5.70;63.70;;;;;;5097248;28;20374;-82
2024/01/23 04:30:52;;;;;;;3.88;3.10;;;5.70;63.70;;;;;;5109298;28;20022;-82
2024/01/23 04:33:18;;;;;;;3.28;2.97;;;5.70;63.70;;;;;;5101451;28;20024;-81
2024/01/23 04:35:44;;;;;;;3.35;2.90;;;5.70;63.70;;;;;;5100356;28;20020;-82
2024/01/23 04:38:10;;;;;;;3.80;3.30;;;5.70;63.70;;;;;;5100137;28;20078;-83
2024/01/23 04:40:35;;;;;;;4.15;3.75;;;5.70;63.60;;;;;;5099480;28;20020;-82
2024/01/23 04:43:01;;;;;;;4.25;3.60;;;5.70;63.60;;;;;;5101401;28;20016;-81
2024/01/23 04:45:27;;;;;;;3.63;3.03;;;5.70;63.60;;;;;;5099390;28;20330;-83
2024/01/23 04:47:53;;;;;;;4.60;3.88;;;5.70;63.60;;;;;;5080565;28;20024;-83
2024/01/23 04:50:18;;;;;;;4.60;3.75;;;5.70;63.70;;;;;;5098122;28;20020;-82
2024/01/23 04:52:44;;;;;;;3.72;3.20;;;5.70;63.60;;;;;;5079375;28;20151;-83
2024/01/23 04:55:10;;;;;;;4.35;3.17;;;5.70;63.70;;;;;;5078767;28;20110;-83
2024/01/23 04:57:36;;;;;;;4.20;3.40;;;5.70;63.60;;;;;;5097066;28;20023;-85
2024/01/23 05:00:04;;;;;;;4.00;3.60;;;5.60;63.60;;;;;;5095668;28;20358;-83
2024/01/23 05:02:30;;;;;;;4.75;3.38;;;5.70;63.60;;;;;;5096437;28;20028;-83
2024/01/23 05:04:56;;;;;;;3.88;3.47;;;5.70;63.70;;;;;;5078126;28;20039;-83
2024/01/23 05:07:21;;;;;;;3.75;3.40;;;5.60;63.60;;;;;;5078155;28;20016;-83
2024/01/23 05:09:48;;;;;;;3.65;3.30;;;5.60;63.60;;;;;;5096342;28;20069;-84
2024/01/23 05:12:13;;;;;;;4.50;3.60;;;5.60;63.60;;;;;;5096018;28;20020;-83
2024/01/23 05:14:39;;;;;;;4.35;3.50;;;5.60;63.60;;;;;;5096301;28;20046;-81
2024/01/23 05:17:05;;;;;;;5.75;4.15;;;5.60;63.60;;;;;;5096529;28;20135;-84
2024/01/23 05:19:31;;;;;;;4.25;3.85;;;5.60;63.60;;;;;;5096257;28;20019;-82
2024/01/23 05:21:57;;;;;;;4.20;3.50;;;5.60;63.60;;;;;;5095832;28;20412;-82
2024/01/23 05:24:25;;;;;;;4.93;3.67;;;5.60;63.60;;;;;;5096788;28;20335;-85
2024/01/23 05:26:50;;;;;;;5.15;3.97;;;5.60;63.60;;;;;;5095743;28;20458;-85
2024/01/23 05:29:16;;;;;;;5.18;3.88;;;5.60;63.60;;;;;;5095471;28;20039;-80
2024/01/23 05:31:42;;;;;;;4.32;3.47;;;5.60;63.60;;;;;;5096688;28;20458;-81
2024/01/23 05:34:08;;;;;;;4.43;3.50;;;5.60;63.80;;;;;;5079290;28;20020;-86
2024/01/23 05:36:34;;;;;;;4.50;3.30;;;5.60;64.90;;;;;;5095160;28;20150;-83
2024/01/23 05:38:59;;;;;;;3.97;3.33;;;5.70;65.50;;;;;;5077666;28;20020;-81
2024/01/23 05:41:25;;;;;;;4.45;3.65;;;5.80;65.50;;;;;;5077485;28;20031;-81
2024/01/23 05:43:51;;;;;;;4.20;3.13;;;5.90;65.80;;;;;;5095382;28;20032;-80
2024/01/23 05:46:18;;;;;;;4.90;3.85;;;5.90;65.90;;;;;;5095789;28;20449;-82
2024/01/23 05:48:45;;;;;;;4.35;3.53;;;5.90;66.00;;;;;;5076931;28;20020;-77
2024/01/23 05:51:11;;;;;;;4.13;3.50;;;5.90;66.10;;;;;;5075130;28;20035;-75
2024/01/23 05:53:37;;;;;;;4.35;3.85;;;6.00;66.20;;;;;;5094712;28;20466;-76
2024/01/23 05:56:03;;;;;;;4.57;3.78;;;6.00;66.20;;;;;;5077121;28;20115;-76
2024/01/23 05:58:29;;;;;;;4.55;3.80;;;5.90;66.10;;;;;;5077073;28;20027;-78
2024/01/23 06:00:54;;;;;;;4.95;3.65;;;6.00;66.10;;;;;;5095034;28;20043;-75
2024/01/23 06:03:20;;;;;;;4.05;3.40;;;6.00;66.10;;;;;;5077307;28;20028;-78
2024/01/23 06:05:46;;;;;;;4.15;3.75;;;5.90;66.10;;;;;;5076673;28;20476;-74
2024/01/23 06:08:14;;;;;;;4.50;3.72;;;5.90;66.00;;;;;;5076667;28;20114;-76
2024/01/23 06:10:39;;;;;;;4.35;3.50;;;5.90;66.00;;;;;;5075903;28;20107;-73
2024/01/23 06:13:05;;;;;;;4.50;3.90;;;5.90;66.00;;;;;;5094690;28;20103;-74
2024/01/23 06:15:31;;;;;;;4.45;3.85;;;5.90;65.90;;;;;;5094749;28;20056;-76
2024/01/23 06:17:57;;;;;;;4.30;3.70;;;5.90;65.90;;;;;;5076623;28;20024;-73
2024/01/23 06:20:23;;;;;;;5.32;4.22;;;5.90;65.90;;;;;;5076581;28;20077;-74
2024/01/23 06:22:49;;;;;;;4.88;3.92;;;5.90;65.80;;;;;;5076468;28;20059;-74
2024/01/23 06:25:14;;;;;;;4.50;3.92;;;5.90;65.80;;;;;;5076231;28;20478;-73
2024/01/23 06:27:41;;;;;;;5.18;3.97;;;5.90;65.80;;;;;;5076312;28;20035;-73
2024/01/23 06:30:11;;;;;;;3.95;3.50;;;5.90;65.70;;;;;;5076258;28;20368;-73
2024/01/23 06:32:37;;;;;;;5.03;3.80;;;6.00;65.70;;;;;;5076078;28;20020;-74
2024/01/23 06:35:04;;;;;;;4.97;4.00;;;6.00;65.60;;;;;;5077754;28;20057;-73
2024/01/23 06:37:29;;;;;;;3.97;3.58;;;6.00;65.60;;;;;;5094908;28;20028;-75
2024/01/23 06:39:55;;;;;;;4.63;3.78;;;6.00;65.50;;;;;;5075740;28;20027;-73
2024/01/23 06:42:21;;;;;;;4.25;3.83;;;6.00;65.50;;;;;;5075878;28;20016;-73
2024/01/23 06:44:47;;;;;;;4.72;3.72;;;6.00;65.50;;;;;;5076012;28;20048;-73
2024/01/23 06:47:12;;;;;;;4.47;3.60;;;6.00;65.40;;;;;;5076931;28;20435;-73
2024/01/23 06:49:38;;;;;;;5.47;3.90;;;6.00;65.40;;;;;;5094199;28;20451;-73
2024/01/23 06:52:04;;;;;;;4.53;3.63;;;6.00;65.40;;;;;;5093886;28;20023;-73
2024/01/23 06:54:30;;;;;;;4.97;4.00;;;6.00;65.30;;;;;;5094131;28;20119;-72
2024/01/23 06:56:56;;;;;;;5.25;4.22;;;6.00;65.30;;;;;;5094299;28;20107;-73
2024/01/23 06:59:22;;;;;;;5.20;4.22;;;6.00;65.20;;;;;;5076146;28;20016;-72
2024/01/23 07:01:47;;;;;;;4.70;3.70;;;6.00;65.20;;;;;;5094071;28;20030;-72
2024/01/23 07:04:13;;;;;;;4.43;3.88;;;6.10;65.20;;;;;;5094018;28;20020;-73
2024/01/23 07:06:39;;;;;;;5.25;4.05;;;6.00;65.10;;;;;;5094721;28;20036;-74
2024/01/23 07:09:05;;;;;;;6.30;4.15;;;6.10;65.10;;;;;;5093742;28;20055;-74
2024/01/23 07:11:30;;;;;;;4.50;3.88;;;6.10;65.10;;;;;;5094166;28;20020;-74
2024/01/23 07:13:56;;;;;;;4.38;3.80;;;6.10;65.00;;;;;;5093680;28;20430;-73
2024/01/23 07:16:22;;;;;;;5.43;4.10;;;6.10;64.90;;;;;;5093974;28;20343;-72
2024/01/23 07:18:48;;;;;;;4.70;4.03;;;6.10;64.90;;;;;;5093447;28;20450;-73
2024/01/23 07:21:14;;;;;;;5.35;4.43;;;6.20;64.90;;;;;;5075872;28;20074;-72
2024/01/23 07:23:39;;;;;;;4.63;3.97;;;6.20;64.80;;;;;;5079560;28;20020;-73
2024/01/23 07:26:05;;;;;;;5.32;4.00;;;6.20;64.80;;;;;;5079190;28;20348;-74
2024/01/23 07:28:31;;;;;;;4.68;4.10;;;6.20;64.80;;;;;;5098390;28;20028;-73
2024/01/23 07:30:57;;;;;;;4.57;4.05;;;6.20;64.80;;;;;;5098103;28;20059;-74
2024/01/23 07:33:22;;;;;;;4.95;3.83;;;6.20;64.70;;;;;;5079747;28;20435;-73
2024/01/23 07:35:50;;;;;;;5.00;4.28;;;6.20;64.70;;;;;;5097856;28;20016;-74
2024/01/23 07:38:16;;;;;;;4.82;4.00;;;6.20;64.60;;;;;;5097836;28;20031;-71
2024/01/23 07:40:42;;;;;;;4.30;3.90;;;6.20;64.60;;;;;;5079677;28;20020;-73
2024/01/23 07:43:07;;;;;;;4.75;3.88;;;6.20;64.60;;;;;;5097445;28;20369;-73
2024/01/23 07:45:33;;;;;;;5.78;4.40;;;6.20;64.60;;;;;;5079574;28;20035;-74
2024/01/23 07:47:59;;;;;;;3.92;3.53;;;6.20;64.50;;;;;;5079502;28;20098;-73
2024/01/23 07:50:27;;;;;;;5.30;4.03;;;6.20;64.50;;;;;;5098043;28;20023;-73
2024/01/23 07:52:55;;;;;;;5.40;4.43;;;6.20;65.00;;;;;;5097293;28;20127;-74
2024/01/23 07:55:22;;;;;;;5.25;4.18;;;6.20;64.50;;;;;;5097134;28;20097;-72
2024/01/23 07:57:48;;;;;;;4.15;3.72;;;6.20;64.40;;;;;;5097524;28;20024;-72
2024/01/23 08:00:18;;;;;;;5.10;4.00;;;6.30;64.40;;;;;;5097464;28;20022;-73
2024/01/23 08:02:44;;;;;;;5.32;3.80;;;6.30;64.40;;;;;;5097537;28;20016;-73
2024/01/23 08:05:11;;;;;;;4.50;3.78;;;6.30;64.30;;;;;;5097522;28;20032;-73
2024/01/23 08:07:37;;;;;;;4.30;3.78;;;6.30;64.30;;;;;;5097385;28;20033;-73
2024/01/23 08:10:04;;;;;;;4.65;3.70;;;6.30;64.60;;;;;;5078994;28;20052;-72
2024/01/23 08:12:29;;;;;;;5.13;4.03;;;6.30;64.30;;;;;;5096886;28;20032;-73
2024/01/23 08:14:55;;;;;;;3.88;3.47;;;6.30;64.20;;;;;;5097228;28;20534;-73
2024/01/23 08:17:21;;;;;;;4.82;4.28;;;6.30;64.20;;;;;;5079127;28;20594;-73
2024/01/23 08:19:47;;;;;;;4.80;3.47;;;6.40;64.20;;;;;;5097390;28;20442;-73
2024/01/23 08:22:13;;;;;;;4.82;4.00;;;6.40;64.10;;;;;;5096984;28;20349;-72
2024/01/23 08:24:38;;;;;;;4.35;3.58;;;6.40;64.10;;;;;;5096647;28;20073;-74
2024/01/23 08:27:04;;;;;;;4.45;3.60;;;6.40;64.10;;;;;;5078316;28;20063;-73
2024/01/23 08:29:30;;;;;;;4.45;3.65;;;6.40;64.00;;;;;;5079009;28;20471;-74
2024/01/23 08:31:56;;;;;;;4.28;3.50;;;6.40;64.00;;;;;;5078638;28;20342;-73
2024/01/23 08:34:22;;;;;;;3.92;3.40;;;6.40;64.00;;;;;;5078511;28;20020;-72
2024/01/23 08:36:48;;;;;;;3.88;3.53;;;6.50;64.00;;;;;;5096810;28;20450;-72
2024/01/23 08:39:15;;;;;;;4.13;3.45;;;6.50;63.90;;;;;;5096962;28;20020;-74
2024/01/23 08:41:41;;;;;;;4.13;3.72;;;6.50;63.90;;;;;;5096665;28;20331;-73
2024/01/23 08:44:07;;;;;;;4.00;3.33;;;6.50;63.80;;;;;;5096203;28;20035;-73
2024/01/23 08:46:34;;;;;;;5.00;3.83;;;6.50;63.80;;;;;;5096145;28;20028;-73
2024/01/23 08:49:00;;;;;;;4.88;3.95;;;6.60;63.80;;;;;;5096379;28;20477;-72
2024/01/23 08:51:28;;;;;;;4.80;4.25;;;6.60;63.70;;;;;;5096767;28;20019;-74
2024/01/23 08:53:54;;;;;;;4.93;3.70;;;6.60;63.70;;;;;;5078145;28;20040;-73
2024/01/23 08:56:23;;;;;;;3.88;3.30;;;6.60;63.70;;;;;;5096296;28;20020;-73
2024/01/23 08:58:52;;;;;;;3.67;3.38;;;6.60;63.60;;;;;;5096042;28;20020;-73
2024/01/23 09:01:17;;;;;;;4.20;3.60;;;6.60;63.60;;;;;;5078023;28;20028;-71
2024/01/23 09:03:43;;;;;;;3.90;3.53;;;6.60;63.50;;;;;;5078409;28;20366;-73
2024/01/23 09:06:10;;;;;;;4.93;3.75;;;6.70;63.60;;;;;;5078096;28;20024;-73
2024/01/23 09:08:36;;;;;;;4.15;3.50;;;6.70;63.50;;;;;;5096560;28;20023;-72
2024/01/23 09:11:02;;;;;;;4.35;3.40;;;6.80;63.50;;;;;;5096053;28;20051;-73
2024/01/23 09:13:31;;;;;;;4.22;3.65;;;6.80;63.40;;;;;;5096217;28;20116;-72
2024/01/23 09:15:58;;;;;;;3.92;3.53;;;6.80;63.40;;;;;;5096014;28;20028;-73
2024/01/23 09:18:24;;;;;;;3.63;3.33;;;6.80;63.30;;;;;;5095634;28;20095;-72
2024/01/23 09:20:50;;;;;;;3.83;3.42;;;6.90;63.30;;;;;;5095585;28;20146;-73
2024/01/23 09:23:17;;;;;;;3.40;3.10;;;6.90;63.20;;;;;;5095695;28;20028;-73
2024/01/23 09:25:42;;;;;;;4.25;3.47;;;6.90;63.20;;;;;;5095870;28;20031;-72
2024/01/23 09:28:08;;;;;;;3.78;3.40;;;6.90;63.20;;;;;;5078662;28;20031;-73
2024/01/23 09:30:34;;;;;;;3.30;3.00;;;6.90;63.10;;;;;;5078079;28;20453;-74
2024/01/23 09:33:02;;;;;;;3.97;3.47;;;6.90;63.10;;;;;;5096186;28;20027;-75
2024/01/23 09:35:29;;;;;;;3.75;3.35;;;7.00;63.10;;;;;;5095355;28;20454;-72
2024/01/23 09:37:55;;;;;;;3.97;3.30;;;7.00;63.10;;;;;;5095847;28;20055;-73
2024/01/23 09:40:21;;;;;;;3.30;3.00;;;7.00;63.00;;;;;;5095799;28;20076;-73
2024/01/23 09:42:47;;;;;;;3.28;2.97;;;7.00;63.00;;;;;;5095803;28;20024;-73
2024/01/23 09:45:18;;;;;;;3.60;3.10;;;7.00;63.00;;;;;;5095357;28;20418;-74
2024/01/23 09:47:48;;;;;;;3.95;3.10;;;7.10;63.00;;;;;;5095130;28;20024;-73
2024/01/23 09:50:17;;;;;;;3.80;3.30;;;7.10;63.00;;;;;;5077905;28;20075;-73
2024/01/23 09:52:45;;;;;;;3.90;3.20;;;7.20;63.00;;;;;;5077092;28;20020;-73
2024/01/23 09:55:11;;;;;;;3.78;3.15;;;7.20;62.80;;;;;;5076798;28;20052;-74
2024/01/23 09:57:42;;;;;;;4.00;3.30;;;7.30;62.80;;;;;;5095740;28;20073;-72
2024/01/23 10:00:12;;;;;;;3.95;3.15;;;7.30;62.80;;;;;;5095215;28;20035;-73
2024/01/23 10:02:39;;;;;;;3.55;3.25;;;7.40;62.70;;;;;;5077701;28;20020;-73
2024/01/23 10:05:10;;;;;;;3.40;3.10;;;7.40;62.60;;;;;;5076811;28;20101;-74
2024/01/23 10:07:40;;;;;;;3.85;3.10;;;7.50;62.60;;;;;;5076816;28;20035;-72
2024/01/23 10:10:14;;;;;;;3.17;2.88;;;7.50;62.50;;;;;;5077317;28;20056;-73
2024/01/23 10:12:45;;;;;;;3.38;3.00;;;7.60;62.50;;;;;;5095307;28;20063;-73
2024/01/23 10:15:12;;;;;;;4.05;3.05;;;7.60;62.40;;;;;;5076733;28;20024;-73
2024/01/23 10:17:39;;;;;;;3.28;2.97;;;7.60;62.30;;;;;;5076854;28;20016;-74
2024/01/23 10:20:06;;;;;;;3.25;2.95;;;7.60;62.30;;;;;;5094798;28;20020;-73
2024/01/23 10:22:33;;;;;;;3.38;3.00;;;7.60;62.20;;;;;;5076457;28;20023;-74
2024/01/23 10:24:59;;;;;;;3.10;2.80;;;7.70;62.20;;;;;;5094701;28;20085;-74
2024/01/23 10:27:28;;;;;;;3.33;2.90;;;7.70;62.20;;;;;;5094570;28;20028;-73
2024/01/23 10:29:54;;;;;;;2.78;2.53;;;7.70;62.10;;;;;;5076372;28;20031;-73
2024/01/23 10:32:23;;;;;;;3.10;2.80;;;7.70;62.10;;;;;;5076667;28;20020;-73
2024/01/23 10:34:53;;;;;;;3.35;2.90;;;7.80;62.10;;;;;;5076297;28;20020;-73
2024/01/23 10:37:21;;;;;;;3.00;2.70;;;7.70;62.00;;;;;;5076976;28;20350;-73
2024/01/23 10:39:49;;;;;;;2.95;2.72;;;7.80;62.10;;;;;;5094733;28;20012;-73
2024/01/23 10:42:16;;;;;;;2.80;2.60;;;7.80;62.00;;;;;;5094346;28;20343;-72
2024/01/23 10:44:44;;;;;;;3.10;2.80;;;7.80;62.00;;;;;;5094473;28;20027;-74
2024/01/23 10:47:10;;;;;;;2.75;2.55;;;7.90;62.00;;;;;;5076608;28;20028;-73
2024/01/23 10:49:36;;;;;;;2.83;2.58;;;7.80;61.90;;;;;;5094231;28;20059;-72
2024/01/23 10:52:04;;;;;;;3.15;2.85;;;7.90;61.90;;;;;;5076054;28;20024;-72
2024/01/23 10:54:32;;;;;;;3.00;2.70;;;7.90;61.90;;;;;;5094316;28;20071;-72
2024/01/23 10:57:07;;;;;;;2.83;2.63;;;7.90;61.80;;;;;;5075145;28;20086;-73
2024/01/23 10:59:37;;;;;;;2.75;2.55;;;8.00;61.80;;;;;;5093954;28;20450;-73
2024/01/23 11:02:08;;;;;;;2.67;2.47;;;7.90;61.80;;;;;;5093561;28;20331;-74
2024/01/23 11:04:34;;;;;;;2.90;2.60;;;8.00;61.80;;;;;;5076848;28;20036;-74
2024/01/23 11:07:15;;;;;;;2.65;2.42;;;8.00;61.70;;;;;;5093827;28;20393;-74
2024/01/23 11:09:59;;;;;;;2.67;2.47;;;8.00;61.70;;;;;;5094093;28;20031;-74
2024/01/23 11:12:46;;;;;;;2.67;2.43;;;8.10;61.60;;;;;;5093958;28;20457;-74
2024/01/23 11:15:16;;;;;;;2.65;2.45;;;8.10;61.60;;;;;;5093955;28;20253;-73
2024/01/23 11:17:42;;;;;;;2.83;2.50;;;8.10;61.50;;;;;;5094374;28;20062;-73
2024/01/23 11:20:15;;;;;;;2.95;2.65;;;8.10;61.50;;;;;;5093409;28;20017;-74
2024/01/23 11:22:41;;;;;;;2.40;2.20;;;8.10;61.50;;;;;;5093876;28;20020;-73
2024/01/23 11:25:09;;;;;;;2.53;2.33;;;8.10;61.50;;;;;;5093755;28;20089;-72
2024/01/23 11:27:37;;;;;;;2.58;2.38;;;8.10;61.40;;;;;;5093762;28;20111;-73
2024/01/23 11:30:07;;;;;;;2.75;2.55;;;8.10;61.40;;;;;;5093896;28;20028;-73
2024/01/23 11:32:33;;;;;;;3.22;2.47;;;8.10;61.40;;;;;;5077350;28;20028;-74
2024/01/23 11:35:11;;;;;;;2.83;2.63;;;8.00;61.40;;;;;;5076633;28;20116;-73
2024/01/23 11:37:49;;;;;;;3.08;2.78;;;8.10;61.40;;;;;;5094084;28;20023;-74
2024/01/23 11:40:27;;;;;;;4.07;2.58;;;8.10;61.40;;;;;;5093962;28;20499;-74
2024/01/23 11:42:58;;;;;;;2.85;2.40;;;8.10;61.40;;;;;;5075638;28;20023;-74
2024/01/23 11:45:27;;;;;;;2.50;2.30;;;8.20;61.40;;;;;;5093940;28;20103;-72
2024/01/23 11:47:58;;;;;;;2.42;2.22;;;8.20;61.30;;;;;;5093422;28;20073;-73
2024/01/23 11:50:26;;;;;;;2.63;2.42;;;8.20;61.30;;;;;;5076347;28;20414;-74
2024/01/23 11:52:54;;;;;;;2.10;2.00;;;8.20;61.30;;;;;;5075206;28;20024;-74
2024/01/23 11:55:21;;;;;;;2.20;2.10;;;8.20;61.20;;;;;;5094041;28;20079;-74
2024/01/23 11:57:51;;;;;;;2.50;2.30;;;8.20;61.10;;;;;;5075002;28;20024;-76
2024/01/23 12:00:18;;;;;;;2.30;2.20;;;8.20;61.10;;;;;;5075972;28;20020;-79
2024/01/23 12:02:45;;;;;;;2.47;2.28;;;8.20;61.20;;;;;;5075348;28;20078;-74
2024/01/23 12:05:11;;;;;;;2.65;2.45;;;8.20;61.20;;;;;;5093256;28;20119;-81
2024/01/23 12:07:39;;;;;;;2.53;2.33;;;8.10;61.20;;;;;;5093074;28;20454;-79
2024/01/23 12:10:10;;;;;;;2.35;2.20;;;8.10;61.10;;;;;;5095088;28;20055;-78
2024/01/23 12:12:37;;;;;;;2.40;2.20;;;8.10;61.10;;;;;;5079224;28;20052;-85
2024/01/23 12:15:06;;;;;;;2.38;2.17;;;8.10;61.10;;;;;;5096652;28;20020;-82
2024/01/23 12:17:33;;;;;;;2.20;2.10;;;8.10;61.10;;;;;;5070110;28;20049;-77
2024/01/23 12:20:04;;;;;;;2.70;2.50;;;8.00;61.10;;;;;;5078548;28;20027;-75
2024/01/23 12:22:31;;;;;;;2.53;2.33;;;8.00;61.10;;;;;;5079403;28;20012;-73
2024/01/23 12:24:57;;;;;;;2.65;2.45;;;8.00;61.10;;;;;;5078166;28;20047;-79
2024/01/23 12:27:25;;;;;;;2.28;2.08;;;8.00;61.20;;;;;;5078891;28;20036;-82
2024/01/23 12:29:51;;;;;;;2.28;2.15;;;7.90;61.10;;;;;;5079226;28;20126;-88
2024/01/23 12:32:17;;;;;;;2.67;2.47;;;7.90;61.10;;;;;;5099863;28;20028;-85
2024/01/23 12:34:45;;;;;;;2.33;2.13;;;7.90;61.20;;;;;;5080952;28;20024;-86
2024/01/23 12:37:11;;;;;;;2.60;2.40;;;7.90;61.20;;;;;;5082834;28;20020;-84
2024/01/23 12:39:37;;;;;;;2.50;2.30;;;7.90;61.20;;;;;;5080276;28;20051;-86
2024/01/23 12:42:03;;;;;;;2.75;2.30;;;7.90;61.20;;;;;;5084741;28;20054;-87
2024/01/23 12:44:30;;;;;;;2.42;2.22;;;7.90;61.20;;;;;;5098413;28;20028;-86
2024/01/23 12:46:56;;;;;;;2.78;2.58;;;7.80;61.20;;;;;;5079364;28;20060;-88
2024/01/23 12:49:22;;;;;;;2.55;2.35;;;7.80;61.20;;;;;;5079166;28;20058;-79
2024/01/23 12:51:51;;;;;;;2.63;2.42;;;7.80;61.20;;;;;;5097626;28;20024;-81
2024/01/23 12:54:17;;;;;;;2.55;2.35;;;7.80;61.20;;;;;;5078215;28;20047;-81